Time;durP1;ratioP1;P1;durP2;ratioP2;P2;SDS_P1;SDS_P2;PMS_P1;PMS_P2;Temp;Humidity;BMP_temperature;BMP_pressure;BME280_temperature;BME280_humidity;BME280_pressure;Samples;Min_cycle;Max_cycle;Signal;HPM_P1;HPM_P2
2023/02/11 00:00:17;;;;;;;54.00;27.92;;;6.00;99.90;;;4.51;100.00;102279.81;5011216;28;20041;-72
2023/02/11 00:02:43;;;;;;;57.58;28.08;;;6.00;99.90;;;4.50;100.00;102270.00;5009719;28;20050;-72
2023/02/11 00:05:09;;;;;;;56.10;27.48;;;6.00;99.90;;;4.53;100.00;102273.28;5009898;28;20042;-72
2023/02/11 00:07:35;;;;;;;54.42;27.70;;;6.00;99.90;;;4.54;100.00;102247.97;5009995;28;20049;-72
2023/02/11 00:10:02;;;;;;;60.08;29.48;;;6.10;99.90;;;4.58;100.00;102260.22;5011079;28;20049;-72
2023/02/11 00:12:28;;;;;;;54.72;27.80;;;6.10;99.90;;;4.55;100.00;102256.94;5014089;28;20042;-72
2023/02/11 00:14:54;;;;;;;58.28;29.55;;;6.10;99.90;;;4.52;100.00;102249.13;4999457;28;20034;-72
2023/02/11 00:17:20;;;;;;;57.25;28.63;;;6.10;99.90;;;4.57;100.00;102263.06;5005693;28;20038;-72
2023/02/11 00:19:52;;;;;;;60.70;29.73;;;6.10;99.90;;;4.63;100.00;102292.25;5009687;28;20120;-71
2023/02/11 00:22:18;;;;;;;54.38;27.92;;;6.20;99.90;;;4.64;100.00;102269.63;5010478;28;20030;-71
2023/02/11 00:24:44;;;;;;;55.50;28.92;;;6.20;99.90;;;4.60;100.00;102269.03;5009806;28;20034;-72
2023/02/11 00:27:10;;;;;;;56.03;29.42;;;6.20;99.90;;;4.65;100.00;102260.53;4996595;28;20034;-72
2023/02/11 00:29:37;;;;;;;56.45;30.23;;;6.20;99.90;;;4.64;100.00;102266.94;5009759;28;20070;-72
2023/02/11 00:32:04;;;;;;;55.57;29.07;;;6.20;99.90;;;4.61;100.00;102275.31;4999910;28;20382;-72
2023/02/11 00:34:31;;;;;;;58.90;30.58;;;6.20;99.90;;;4.65;100.00;102263.22;5006801;28;20073;-72
2023/02/11 00:36:57;;;;;;;58.33;29.52;;;6.10;99.90;;;4.63;100.00;102261.66;4995050;28;20113;-72
2023/02/11 00:39:23;;;;;;;60.90;31.73;;;6.20;99.90;;;4.62;100.00;102255.41;4998562;28;20394;-72
2023/02/11 00:41:49;;;;;;;61.13;30.58;;;6.20;99.90;;;4.64;100.00;102268.75;5008729;28;20093;-73
2023/02/11 00:44:15;;;;;;;62.08;29.23;;;6.20;99.90;;;4.64;100.00;102287.69;5009560;28;20042;-71
2023/02/11 00:46:40;;;;;;;65.13;30.92;;;6.20;99.90;;;4.61;100.00;102262.63;5010316;28;20091;-71
2023/02/11 00:49:09;;;;;;;61.28;30.58;;;6.20;99.90;;;4.64;100.00;102279.56;5009299;28;20116;-71
2023/02/11 00:51:35;;;;;;;55.38;30.00;;;6.20;99.90;;;4.65;100.00;102284.03;5008521;28;20485;-71
2023/02/11 00:54:03;;;;;;;60.07;30.67;;;6.20;99.90;;;4.62;100.00;102285.13;5011096;28;20034;-71
2023/02/11 00:56:28;;;;;;;61.92;30.90;;;6.20;99.90;;;4.65;100.00;102292.13;5008483;28;20436;-71
2023/02/11 00:58:55;;;;;;;62.92;30.63;;;6.20;99.90;;;4.65;100.00;102289.44;5009444;28;20033;-71
2023/02/11 01:01:20;;;;;;;60.63;30.85;;;6.20;99.90;;;4.64;100.00;102307.47;5008506;28;20050;-71
2023/02/11 01:03:46;;;;;;;57.72;29.45;;;6.20;99.90;;;4.65;100.00;102289.44;5010360;28;20038;-71
2023/02/11 01:06:12;;;;;;;63.80;31.60;;;6.20;99.90;;;4.64;100.00;102296.66;4996870;28;20053;-71
2023/02/11 01:08:39;;;;;;;61.20;30.83;;;6.20;99.90;;;4.59;100.00;102272.72;5009142;28;20133;-71
2023/02/11 01:11:11;;;;;;;57.40;31.00;;;6.20;99.90;;;4.56;100.00;102283.00;5008351;28;20046;-71
2023/02/11 01:13:37;;;;;;;61.70;32.30;;;6.10;99.90;;;4.59;100.00;102280.00;5015088;28;20722;-71
2023/02/11 01:16:07;;;;;;;64.05;30.90;;;6.10;99.90;;;4.55;100.00;102267.75;5014333;28;20042;-71
2023/02/11 01:18:33;;;;;;;62.13;32.03;;;6.10;99.90;;;4.54;100.00;102274.16;4995627;28;20126;-71
2023/02/11 01:20:59;;;;;;;70.07;33.70;;;6.10;99.90;;;4.52;100.00;102265.34;5006696;28;20316;-73
2023/02/11 01:23:25;;;;;;;67.07;33.35;;;6.10;99.90;;;4.55;100.00;102278.56;5008956;28;20042;-71
2023/02/11 01:25:51;;;;;;;65.22;34.17;;;6.10;99.90;;;4.49;100.00;102257.47;5003389;28;20034;-71
2023/02/11 01:28:20;;;;;;;64.90;34.15;;;6.10;99.90;;;4.47;100.00;102273.84;5008123;28;20057;-72
2023/02/11 01:30:46;;;;;;;67.95;35.00;;;6.00;99.90;;;4.42;100.00;102266.13;4993586;28;20104;-72
2023/02/11 01:33:11;;;;;;;67.10;33.17;;;6.00;99.90;;;4.39;100.00;102243.94;4992169;28;20041;-71
2023/02/11 01:35:38;;;;;;;71.60;34.08;;;5.90;99.90;;;4.37;100.00;102241.38;5008060;28;20045;-71
2023/02/11 01:38:06;;;;;;;67.93;34.23;;;5.90;99.90;;;4.33;100.00;102237.25;5008306;28;20105;-71
2023/02/11 01:40:32;;;;;;;68.25;34.85;;;5.90;99.90;;;4.33;100.00;102229.13;4993930;28;20034;-72
2023/02/11 01:43:00;;;;;;;67.68;35.83;;;5.90;99.90;;;4.30;100.00;102251.88;4998565;28;20120;-71
2023/02/11 01:45:52;;;;;;;73.55;34.92;;;5.80;99.90;;;4.29;100.00;102227.69;5004622;28;20133;-71
2023/02/11 01:48:28;;;;;;;73.32;35.53;;;5.80;99.90;;;4.27;100.00;102221.56;5001174;28;20164;-71
2023/02/11 01:51:12;;;;;;;71.03;36.42;;;5.80;99.90;;;4.24;100.00;102206.47;5008052;28;20359;-71
2023/02/11 01:59:22;;;;;;;74.50;36.83;;;5.70;99.90;;;4.10;100.00;102175.28;4995225;28;20113;-71
2023/02/11 02:01:57;;;;;;;84.28;39.67;;;5.70;99.90;;;4.02;100.00;102172.44;5008190;28;20052;-72
2023/02/11 02:04:30;;;;;;;79.22;37.25;;;5.60;99.90;;;3.87;100.00;102144.94;5006662;28;20162;-71
2023/02/11 02:07:13;;;;;;;83.25;41.17;;;5.60;99.90;;;3.96;100.00;102165.72;5008167;28;20113;-72
2023/02/11 02:09:47;;;;;;;81.03;39.20;;;5.60;99.90;;;4.00;100.00;102155.50;5002579;28;20367;-71
2023/02/11 02:12:13;;;;;;;84.38;40.17;;;5.50;99.90;;;4.00;100.00;102159.06;4992082;28;20034;-71
2023/02/11 02:14:40;;;;;;;87.50;39.40;;;5.60;99.90;;;4.01;100.00;102149.13;4993425;28;20042;-72
2023/02/11 02:17:24;;;;;;;85.00;39.13;;;5.60;99.90;;;4.08;100.00;102168.31;5012221;28;20034;-72
2023/02/11 02:20:34;;;;;;;84.97;40.50;;;5.60;99.90;;;4.13;100.00;102157.97;4997375;28;20045;-71
2023/02/11 02:23:20;;;;;;;81.57;37.15;;;5.70;99.90;;;4.18;100.00;102170.06;5006520;28;20087;-71
2023/02/11 02:26:16;;;;;;;77.05;38.45;;;5.70;99.90;;;4.20;100.00;102185.28;5011334;28;20061;-71
2023/02/11 02:29:18;;;;;;;79.97;38.42;;;5.70;99.90;;;4.19;100.00;102179.03;5011151;28;20061;-71
2023/02/11 02:32:25;;;;;;;81.45;38.53;;;5.80;99.90;;;4.25;100.00;102177.63;5010458;28;20136;-71
2023/02/11 02:35:36;;;;;;;75.70;36.10;;;5.80;99.90;;;4.25;100.00;102164.97;5000288;28;20088;-71
2023/02/11 02:38:30;;;;;;;85.65;38.45;;;5.80;99.90;;;4.30;100.00;102186.19;5012417;28;20030;-71
2023/02/11 02:41:14;;;;;;;68.10;34.33;;;5.80;99.90;;;4.30;100.00;102172.66;5007896;28;20042;-71
2023/02/11 02:43:46;;;;;;;75.07;36.15;;;5.80;99.90;;;4.27;100.00;102168.38;5011429;28;20036;-71
2023/02/11 02:46:19;;;;;;;76.25;38.33;;;5.80;99.90;;;4.30;100.00;102164.56;5010945;28;20604;-71
2023/02/11 02:48:48;;;;;;;75.15;35.60;;;5.80;99.90;;;4.31;100.00;102160.88;4996755;28;20041;-71
2023/02/11 02:51:47;;;;;;;75.97;36.63;;;5.80;99.90;;;4.32;100.00;102146.34;5001973;28;20034;-71
2023/02/11 02:54:50;;;;;;;78.80;35.88;;;5.80;99.90;;;4.36;100.00;102139.69;5011965;28;20080;-72
2023/02/11 02:58:01;;;;;;;81.90;38.83;;;5.90;99.90;;;4.34;100.00;102136.25;5009979;28;20070;-71
2023/02/11 03:00:48;;;;;;;74.45;36.45;;;5.90;99.90;;;4.37;100.00;102143.22;5003045;28;20933;-71
2023/02/11 03:03:42;;;;;;;75.85;36.17;;;5.90;99.90;;;4.40;100.00;102149.22;5010689;28;20136;-71
2023/02/11 03:06:42;;;;;;;72.90;37.03;;;5.90;99.90;;;4.39;100.00;102152.06;5011140;28;20512;-71
2023/02/11 03:09:14;;;;;;;76.75;37.45;;;5.90;99.90;;;4.40;100.00;102141.09;4998684;28;20092;-71
2023/02/11 03:11:40;;;;;;;78.05;35.83;;;5.90;99.90;;;4.43;100.00;102148.09;5010920;28;20053;-71
2023/02/11 03:14:14;;;;;;;74.97;36.72;;;5.90;99.90;;;4.39;100.00;102143.97;5010847;28;20038;-72
2023/02/11 03:16:43;;;;;;;71.03;36.38;;;5.90;99.90;;;4.43;100.00;102138.13;5010489;28;20497;-71
2023/02/11 03:19:16;;;;;;;78.03;36.85;;;5.90;99.90;;;4.43;100.00;102118.38;5010632;28;20041;-71
2023/02/11 03:21:45;;;;;;;81.97;38.25;;;6.00;99.90;;;4.46;100.00;102139.69;5010417;28;20026;-71
2023/02/11 03:24:27;;;;;;;72.68;33.72;;;6.00;99.90;;;4.52;100.00;102114.81;5003714;28;20045;-71
2023/02/11 03:27:00;;;;;;;77.65;36.42;;;6.00;99.90;;;4.50;100.00;102143.81;5010082;28;20030;-72
2023/02/11 03:29:43;;;;;;;72.00;34.97;;;6.00;99.90;;;4.53;100.00;102129.19;5011161;28;20192;-71
2023/02/11 03:32:35;;;;;;;75.68;35.78;;;6.10;99.90;;;4.49;100.00;102109.69;5007024;28;20389;-71
2023/02/11 03:35:12;;;;;;;72.70;35.42;;;6.10;99.90;;;4.54;100.00;102106.56;5006548;28;20038;-71
2023/02/11 03:37:53;;;;;;;70.13;34.70;;;6.10;99.90;;;4.53;100.00;102105.69;5002334;28;20444;-71
2023/02/11 03:40:23;;;;;;;71.07;32.97;;;6.10;99.90;;;4.52;100.00;102111.28;5010868;28;20095;-71
2023/02/11 03:43:16;;;;;;;70.45;34.38;;;6.00;99.90;;;4.58;100.00;102124.22;5010101;28;20038;-72
2023/02/11 03:45:44;;;;;;;73.43;34.47;;;6.10;99.90;;;4.55;100.00;102111.81;5007621;28;20111;-71
2023/02/11 03:48:30;;;;;;;66.32;33.08;;;6.10;99.90;;;4.55;100.00;102110.97;5010898;28;20061;-71
2023/02/11 03:51:00;;;;;;;69.13;34.30;;;6.10;99.90;;;4.53;100.00;102126.50;5002834;28;20044;-71
2023/02/11 03:53:26;;;;;;;67.03;33.50;;;6.10;99.90;;;4.58;100.00;102121.50;5010763;28;20429;-72
2023/02/11 03:55:59;;;;;;;69.22;33.38;;;6.10;99.90;;;4.57;100.00;102130.63;5012483;28;20057;-72
2023/02/11 03:58:25;;;;;;;69.18;34.22;;;6.10;99.90;;;4.56;100.00;102120.81;5009652;28;20189;-71
2023/02/11 04:00:51;;;;;;;69.10;34.92;;;6.10;99.90;;;4.56;100.00;102131.63;5010571;28;20137;-71
2023/02/11 04:03:16;;;;;;;67.00;32.63;;;6.10;99.90;;;4.53;100.00;102132.72;5010399;28;20117;-71
2023/02/11 04:05:42;;;;;;;72.70;35.00;;;6.10;99.90;;;4.57;100.00;102131.44;5009818;28;20087;-71
2023/02/11 04:08:08;;;;;;;68.03;34.08;;;6.10;99.90;;;4.58;100.00;102129.63;5010796;28;20422;-72
2023/02/11 04:10:34;;;;;;;75.32;33.42;;;6.10;99.90;;;4.59;100.00;102142.13;5009728;28;20042;-71
2023/02/11 04:12:59;;;;;;;70.20;34.40;;;6.10;99.90;;;4.56;100.00;102137.03;4995094;28;20532;-71
2023/02/11 04:15:26;;;;;;;69.85;33.28;;;6.10;99.90;;;4.60;100.00;102144.69;5001077;28;20034;-71
2023/02/11 04:17:51;;;;;;;68.95;33.60;;;6.10;99.90;;;4.59;100.00;102131.31;5000902;28;20038;-71
2023/02/11 04:20:18;;;;;;;77.65;35.33;;;6.10;99.90;;;4.57;100.00;102133.31;5016214;28;20041;-71
2023/02/11 04:22:43;;;;;;;75.10;34.38;;;6.10;99.90;;;4.55;100.00;102127.19;5006441;28;20489;-71
2023/02/11 04:25:09;;;;;;;75.28;35.25;;;6.10;99.90;;;4.53;100.00;102132.72;4999471;28;20042;-71
2023/02/11 04:27:35;;;;;;;72.20;34.75;;;6.10;99.90;;;4.50;100.00;102137.56;5008867;28;20029;-71
2023/02/11 04:30:04;;;;;;;73.60;35.58;;;6.00;99.90;;;4.45;100.00;102140.69;5009414;28;20041;-71
2023/02/11 04:32:30;;;;;;;78.53;35.75;;;6.00;99.90;;;4.45;100.00;102130.72;5018241;28;20485;-71
2023/02/11 04:34:55;;;;;;;76.63;35.90;;;6.00;99.90;;;4.40;100.00;102132.16;5008875;28;20042;-71
2023/02/11 04:37:21;;;;;;;75.70;36.38;;;5.90;99.90;;;4.36;100.00;102128.00;5008822;28;20033;-71
2023/02/11 04:39:47;;;;;;;78.28;37.25;;;5.90;99.90;;;4.32;100.00;102122.88;5009062;28;20050;-71
2023/02/11 04:42:12;;;;;;;82.40;36.90;;;5.80;99.90;;;4.34;100.00;102121.88;5009292;28;20053;-71
2023/02/11 04:44:38;;;;;;;84.25;38.05;;;5.80;99.90;;;4.30;100.00;102111.34;5007883;28;20170;-71
2023/02/11 04:47:04;;;;;;;80.70;37.40;;;5.80;99.90;;;4.33;100.00;102121.03;5009201;28;20054;-71
2023/02/11 04:49:30;;;;;;;78.80;36.75;;;5.80;99.90;;;4.34;100.00;102124.59;5009053;28;20025;-72
2023/02/11 04:51:55;;;;;;;76.53;35.10;;;5.80;99.90;;;4.37;100.00;102117.06;5009267;28;20490;-71
2023/02/11 04:54:21;;;;;;;74.32;36.42;;;5.90;99.90;;;4.40;100.00;102116.78;5009152;28;20049;-71
2023/02/11 04:56:48;;;;;;;78.75;35.10;;;5.90;99.90;;;4.39;100.00;102120.47;5009422;28;20037;-72
2023/02/11 04:59:14;;;;;;;74.35;34.15;;;5.90;99.90;;;4.43;100.00;102121.91;5009386;28;20485;-72
2023/02/11 05:01:40;;;;;;;71.22;34.83;;;5.90;99.90;;;4.46;100.00;102123.47;5001056;28;20120;-72
2023/02/11 05:04:06;;;;;;;67.47;33.53;;;6.00;99.90;;;4.47;100.00;102117.91;5000947;28;20042;-72
2023/02/11 05:06:32;;;;;;;60.95;32.28;;;6.00;99.90;;;4.51;100.00;102123.91;4997160;28;20041;-72
2023/02/11 05:08:57;;;;;;;65.45;32.70;;;6.00;99.90;;;4.52;100.00;102113.97;4994301;28;20042;-72
2023/02/11 05:11:25;;;;;;;66.90;32.95;;;6.00;99.90;;;4.51;100.00;102104.13;5000204;28;20034;-72
2023/02/11 05:13:51;;;;;;;66.07;32.03;;;6.00;99.90;;;4.54;100.00;102095.75;5008528;28;20045;-72
2023/02/11 05:16:17;;;;;;;59.13;32.03;;;6.10;99.90;;;4.53;100.00;102111.09;5009254;28;20539;-72
2023/02/11 05:18:44;;;;;;;57.65;30.98;;;6.10;99.90;;;4.56;100.00;102110.00;5009183;28;20034;-72
2023/02/11 05:21:16;;;;;;;58.08;30.30;;;6.10;99.90;;;4.60;100.00;102103.28;5009260;28;20124;-72
2023/02/11 05:23:43;;;;;;;60.78;31.33;;;6.10;99.90;;;4.61;100.00;102108.53;5001368;28;20038;-72
2023/02/11 05:26:10;;;;;;;57.85;28.77;;;6.10;99.90;;;4.63;100.00;102111.13;5005903;28;20033;-72
2023/02/11 05:28:36;;;;;;;60.03;30.30;;;6.10;99.90;;;4.65;100.00;102124.50;5007543;28;20406;-72
2023/02/11 05:31:03;;;;;;;55.88;28.77;;;6.10;99.90;;;4.66;100.00;102121.66;5008572;28;20303;-72
2023/02/11 05:33:29;;;;;;;56.65;30.30;;;6.20;99.90;;;4.67;100.00;102128.75;5007701;28;20034;-72
2023/02/11 05:36:00;;;;;;;51.65;27.30;;;6.20;99.90;;;4.70;100.00;102123.06;5005690;28;20041;-72
2023/02/11 05:38:26;;;;;;;50.15;28.65;;;6.20;99.90;;;4.75;100.00;102112.66;5004098;28;20040;-72
2023/02/11 05:40:52;;;;;;;50.28;27.67;;;6.20;99.90;;;4.78;100.00;102110.72;5007305;28;20046;-72
2023/02/11 05:43:18;;;;;;;51.88;27.65;;;6.30;99.90;;;4.74;100.00;102097.44;5003677;28;20037;-72
2023/02/11 05:45:44;;;;;;;52.17;26.80;;;6.30;99.90;;;4.76;100.00;102105.44;5017598;28;20058;-72
2023/02/11 05:48:10;;;;;;;49.67;27.67;;;6.30;99.90;;;4.77;100.00;102117.94;5007145;28;20038;-72
2023/02/11 05:50:35;;;;;;;45.13;26.77;;;6.30;99.90;;;4.77;100.00;102112.53;5009963;28;20034;-72
2023/02/11 05:53:04;;;;;;;49.92;27.60;;;6.30;99.90;;;4.79;100.00;102110.53;5008400;28;20080;-72
2023/02/11 05:55:30;;;;;;;46.75;27.55;;;6.30;99.90;;;4.80;100.00;102116.81;5008959;28;20042;-73
2023/02/11 05:57:56;;;;;;;47.83;26.48;;;6.30;99.90;;;4.82;100.00;102117.53;5014222;28;20045;-73
2023/02/11 06:00:22;;;;;;;49.67;26.92;;;6.30;99.90;;;4.80;100.00;102116.81;5008985;28;20406;-73
2023/02/11 06:02:47;;;;;;;49.47;27.98;;;6.30;99.90;;;4.84;100.00;102118.25;5008580;28;20041;-73
2023/02/11 06:05:13;;;;;;;47.70;26.70;;;6.30;99.90;;;4.89;100.00;102118.66;5007941;28;20620;-73
2023/02/11 06:07:39;;;;;;;49.97;26.25;;;6.40;99.90;;;4.87;100.00;102107.13;5007538;28;20501;-73
2023/02/11 06:10:06;;;;;;;54.75;28.83;;;6.40;99.90;;;4.85;100.00;102104.56;5008387;28;20074;-73
2023/02/11 06:12:31;;;;;;;47.28;27.05;;;6.40;99.90;;;4.88;100.00;102100.72;5008362;28;20104;-73
2023/02/11 06:14:57;;;;;;;48.97;27.88;;;6.40;99.90;;;4.89;100.00;102102.44;5003976;28;20069;-73
2023/02/11 06:17:24;;;;;;;53.67;28.20;;;6.40;99.90;;;4.92;100.00;102104.00;5007966;28;20045;-73
2023/02/11 06:19:50;;;;;;;50.08;27.80;;;6.40;99.90;;;4.92;100.00;102099.44;5006656;28;20157;-73
2023/02/11 06:22:15;;;;;;;59.60;29.38;;;6.40;99.90;;;4.94;100.00;102110.97;5003081;28;20243;-73
2023/02/11 06:24:41;;;;;;;50.13;27.77;;;6.50;99.90;;;4.96;100.00;102106.25;5007130;28;20048;-74
2023/02/11 06:27:07;;;;;;;50.63;27.80;;;6.50;99.90;;;4.97;100.00;102117.94;5008232;28;20036;-72
2023/02/11 06:29:33;;;;;;;53.13;28.05;;;6.40;99.90;;;4.98;100.00;102117.78;5006049;28;20034;-73
2023/02/11 06:31:58;;;;;;;50.20;28.20;;;6.50;99.90;;;4.95;100.00;102115.38;5004271;28;20493;-73
2023/02/11 06:34:24;;;;;;;54.33;28.65;;;6.50;99.90;;;4.96;100.00;102103.56;5009209;28;20085;-72
2023/02/11 06:36:50;;;;;;;55.33;28.67;;;6.50;99.90;;;4.96;100.00;102108.97;5009653;28;20038;-72
2023/02/11 06:39:15;;;;;;;61.38;28.85;;;6.50;99.90;;;4.97;100.00;102112.53;5007611;28;20489;-73
2023/02/11 06:41:41;;;;;;;57.75;30.90;;;6.50;99.90;;;4.96;100.00;102103.56;5002676;28;20038;-72
2023/02/11 06:44:07;;;;;;;59.03;28.50;;;6.50;99.90;;;5.00;100.00;102117.66;5006956;28;20052;-72
2023/02/11 06:46:32;;;;;;;53.83;29.85;;;6.50;99.90;;;5.01;100.00;102117.50;5008738;28;20510;-72
2023/02/11 06:48:58;;;;;;;55.92;28.98;;;6.50;99.90;;;4.99;100.00;102122.19;5008428;28;20034;-72
2023/02/11 06:51:24;;;;;;;52.85;29.15;;;6.50;99.90;;;5.00;100.00;102123.91;5008173;28;20046;-72
2023/02/11 06:53:50;;;;;;;52.83;28.60;;;6.50;99.90;;;5.01;100.00;102128.31;4997285;28;20035;-72
2023/02/11 06:56:20;;;;;;;54.78;28.17;;;6.50;99.90;;;5.06;100.00;102124.34;5007390;28;20038;-71
2023/02/11 06:58:46;;;;;;;51.20;28.90;;;6.50;99.90;;;5.06;100.00;102127.06;5009670;28;20046;-71
2023/02/11 07:01:15;;;;;;;50.63;27.35;;;6.60;99.90;;;5.07;100.00;102121.50;5011560;28;20040;-72
2023/02/11 07:03:43;;;;;;;49.22;28.27;;;6.60;99.90;;;5.09;100.00;102111.38;4995040;28;20106;-72
2023/02/11 07:06:14;;;;;;;53.47;27.80;;;6.60;99.90;;;5.08;100.00;102114.25;5005841;28;20069;-72
2023/02/11 07:08:41;;;;;;;54.90;29.23;;;6.60;99.90;;;5.07;100.00;102118.78;5010765;28;20046;-72
2023/02/11 07:11:18;;;;;;;48.38;26.02;;;6.60;99.90;;;5.11;100.00;102108.53;5010562;28;20045;-72
2023/02/11 07:13:45;;;;;;;53.65;27.60;;;6.60;99.90;;;5.11;100.00;102122.06;5009634;28;20158;-73
2023/02/11 07:16:15;;;;;;;51.70;28.08;;;6.60;99.90;;;5.09;100.00;102124.06;5011702;28;20069;-71
2023/02/11 07:18:42;;;;;;;53.10;27.70;;;6.60;99.90;;;5.08;100.00;102130.47;5010575;28;20033;-70
2023/02/11 07:21:11;;;;;;;52.08;28.60;;;6.60;99.90;;;5.11;100.00;102135.59;5005461;28;20436;-71
2023/02/11 07:23:39;;;;;;;51.55;27.42;;;6.60;99.90;;;5.10;100.00;102128.47;5010727;28;20030;-71
2023/02/11 07:26:07;;;;;;;;;;;6.60;99.90;;;5.09;100.00;102140.28;5010961;28;20398;-72
2023/02/11 07:28:35;;;;;;;52.75;27.90;;;6.60;99.90;;;5.12;100.00;102129.19;5011033;28;19987;-71
2023/02/11 07:31:13;;;;;;;49.30;28.42;;;6.60;99.90;;;5.16;100.00;102128.72;5010904;28;20124;-72
2023/02/11 07:33:40;;;;;;;50.10;27.17;;;6.60;99.90;;;5.16;100.00;102122.47;5007226;28;20357;-71
2023/02/11 07:36:08;;;;;;;55.60;28.33;;;6.70;99.90;;;5.14;100.00;102138.84;5008412;28;20047;-72
2023/02/11 07:38:35;;;;;;;54.60;28.83;;;6.70;99.90;;;5.12;100.00;102148.13;5005701;28;20128;-72
2023/02/11 07:41:08;;;;;;;51.97;27.75;;;6.60;99.90;;;5.09;100.00;102137.59;5010440;28;20040;-72
2023/02/11 07:43:36;;;;;;;54.65;28.45;;;6.60;99.90;;;5.06;100.00;102144.13;5007460;28;20095;-73
2023/02/11 07:46:25;;;;;;;51.38;27.85;;;6.60;99.90;;;5.07;100.00;102143.13;5010961;28;20489;-73
2023/02/11 07:48:52;;;;;;;58.55;29.75;;;6.60;99.90;;;5.07;100.00;102145.00;5004341;28;20109;-72
2023/02/11 07:51:23;;;;;;;58.33;29.48;;;6.60;99.90;;;5.09;100.00;102164.66;5010456;28;20041;-73
2023/02/11 07:53:50;;;;;;;48.03;27.70;;;6.60;99.90;;;5.14;100.00;102156.94;5017116;28;20045;-74
2023/02/11 07:56:18;;;;;;;53.42;29.02;;;6.60;99.90;;;5.17;100.00;102145.84;5009176;28;20042;-73
2023/02/11 07:58:44;;;;;;;51.95;28.52;;;6.70;99.90;;;5.22;100.00;102146.25;5010722;28;20049;-73
2023/02/11 08:01:18;;;;;;;53.53;28.13;;;6.70;99.90;;;5.26;100.00;102142.25;5010874;28;20038;-74
2023/02/11 08:03:44;;;;;;;50.83;27.50;;;6.70;99.90;;;5.29;100.00;102146.53;5008454;28;20473;-72
2023/02/11 08:06:14;;;;;;;48.40;27.70;;;6.80;99.90;;;5.28;100.00;102148.38;4995544;28;20062;-73
2023/02/11 08:08:40;;;;;;;58.85;28.20;;;6.80;99.90;;;5.28;100.00;102134.00;5008949;28;20413;-75
2023/02/11 08:11:15;;;;;;;54.50;27.45;;;6.80;99.90;;;5.31;100.00;102125.59;5009378;28;20034;-72
2023/02/11 08:13:42;;;;;;;54.35;27.17;;;6.80;99.90;;;5.32;100.00;102132.72;5008378;28;20493;-72
2023/02/11 08:16:08;;;;;;;54.35;27.23;;;6.80;99.90;;;5.33;100.00;102143.41;5007186;28;20077;-73
2023/02/11 08:18:35;;;;;;;47.80;26.92;;;6.80;99.90;;;5.35;100.00;102137.00;5009743;28;20385;-73
2023/02/11 08:21:09;;;;;;;53.08;28.00;;;6.80;99.90;;;5.30;100.00;102138.28;5006399;28;20449;-73
2023/02/11 08:23:42;;;;;;;48.35;26.70;;;6.80;99.90;;;5.37;100.00;102145.81;5009392;28;20033;-73
2023/02/11 08:26:16;;;;;;;55.00;25.85;;;6.90;99.90;;;5.38;100.00;102140.22;5009207;28;20049;-72
2023/02/11 08:28:45;;;;;;;53.67;27.75;;;6.90;99.90;;;5.37;100.00;102137.69;5008678;28;20030;-71
2023/02/11 08:31:16;;;;;;;;;;;6.90;99.90;;;5.42;100.00;102157.88;5023438;28;20509;-71
2023/02/11 08:33:43;;;;;;;47.65;25.70;;;6.90;99.90;;;5.45;100.00;102159.47;5006916;28;19921;-71
2023/02/11 08:36:15;;;;;;;49.72;25.95;;;6.90;99.90;;;5.48;100.00;102156.47;5007558;28;20057;-71
2023/02/11 08:38:42;;;;;;;53.75;26.35;;;7.00;99.90;;;5.47;100.00;102157.47;5007506;28;20060;-72
2023/02/11 08:41:08;;;;;;;47.35;25.70;;;7.00;99.90;;;5.50;100.00;102180.69;5009154;28;20048;-71
2023/02/11 08:43:35;;;;;;;50.95;26.05;;;7.00;99.90;;;5.50;100.00;102172.56;5004405;28;20038;-72
2023/02/11 08:46:02;;;;;;;43.45;24.02;;;7.00;99.90;;;5.48;100.00;102175.41;5013375;28;20042;-71
2023/02/11 08:48:28;;;;;;;49.28;26.35;;;7.00;99.90;;;5.52;100.00;102187.66;5008786;28;20056;-72
2023/02/11 08:50:55;;;;;;;47.63;25.35;;;7.00;99.90;;;5.51;100.00;102185.94;5009205;28;20061;-71
2023/02/11 08:53:21;;;;;;;51.60;26.25;;;7.00;99.90;;;5.51;100.00;102182.41;4996023;28;20037;-73
2023/02/11 08:55:54;;;;;;;56.92;26.02;;;7.00;99.90;;;5.50;100.00;102173.41;5009727;28;20512;-70
2023/02/11 08:58:21;;;;;;;50.25;25.60;;;7.00;99.90;;;5.53;100.00;102178.53;5008389;28;20079;-71
2023/02/11 09:00:48;;;;;;;49.20;25.25;;;7.00;99.90;;;5.56;100.00;102199.88;5010891;28;20034;-71
2023/02/11 09:03:15;;;;;;;45.90;24.35;;;7.10;99.90;;;5.57;100.00;102192.63;5008487;28;20036;-71
2023/02/11 09:05:48;;;;;;;50.50;25.73;;;7.10;99.90;;;5.55;100.00;102187.34;5004739;28;20496;-72
2023/02/11 09:08:15;;;;;;;46.45;25.58;;;7.10;99.90;;;5.59;100.00;102188.78;5009850;28;20109;-71
2023/02/11 09:10:41;;;;;;;43.92;24.67;;;7.10;99.90;;;5.61;100.00;102200.34;5010345;28;20056;-72
2023/02/11 09:13:07;;;;;;;47.72;25.27;;;7.10;99.90;;;5.61;100.00;102188.63;4995726;28;20084;-71
2023/02/11 09:15:34;;;;;;;48.88;25.42;;;7.10;99.90;;;5.63;100.00;102180.38;5009108;28;20049;-72
2023/02/11 09:18:00;;;;;;;49.47;26.45;;;7.20;99.90;;;5.65;100.00;102191.91;5008568;28;20045;-72
2023/02/11 09:20:27;;;;;;;47.33;24.52;;;7.20;99.90;;;5.70;100.00;102187.78;5009840;28;20073;-70
2023/02/11 09:22:56;;;;;;;44.78;23.80;;;7.20;99.90;;;5.78;100.00;102192.44;5009048;28;20073;-71
2023/02/11 09:25:21;;;;;;;45.00;23.30;;;7.30;99.90;;;5.81;100.00;102200.25;5009386;28;20488;-71
2023/02/11 09:27:47;;;;;;;45.80;24.35;;;7.30;99.90;;;5.81;100.00;102196.72;5002788;28;20049;-71
2023/02/11 09:30:13;;;;;;;45.97;23.40;;;7.30;99.90;;;5.78;100.00;102197.84;5009212;28;20042;-72
2023/02/11 09:32:38;;;;;;;44.67;24.42;;;7.30;99.90;;;5.79;100.00;102196.84;5016559;28;20029;-73
2023/02/11 09:35:05;;;;;;;46.72;24.02;;;7.30;99.90;;;5.86;100.00;102206.13;5008460;28;20088;-73
2023/02/11 09:37:30;;;;;;;44.40;24.05;;;7.30;99.90;;;5.94;100.00;102209.94;5009231;28;20092;-70
2023/02/11 09:39:56;;;;;;;43.97;23.20;;;7.40;99.90;;;5.96;100.00;102224.19;4997121;28;20054;-71
2023/02/11 09:42:45;;;;;;;43.50;23.13;;;7.50;99.90;;;6.03;100.00;102225.31;5007907;28;20030;-71
2023/02/11 09:45:26;;;;;;;43.53;23.08;;;7.50;99.90;;;6.07;100.00;102220.47;5009068;28;20044;-71
2023/02/11 09:48:00;;;;;;;36.92;21.05;;;7.50;99.90;;;6.10;100.00;102231.00;4999025;28;20050;-71
2023/02/11 09:50:35;;;;;;;40.47;21.65;;;7.60;99.90;;;6.18;100.00;102242.81;5000108;28;20046;-71
2023/02/11 09:53:16;;;;;;;39.10;20.92;;;7.70;99.90;;;6.27;100.00;102251.91;5008609;28;20034;-71
2023/02/11 09:55:48;;;;;;;38.92;20.67;;;7.70;99.90;;;6.32;100.00;102252.31;4992126;28;20038;-71
2023/02/11 09:58:21;;;;;;;37.08;21.17;;;7.80;99.90;;;6.35;100.00;102253.84;5007298;28;20492;-72
2023/02/11 10:01:24;;;;;;;37.72;19.75;;;7.90;99.90;;;6.36;100.00;102265.56;4999890;28;20138;-71
2023/02/11 10:03:52;;;;;;;35.30;19.50;;;7.90;99.90;;;6.27;100.00;102251.06;5008268;28;20144;-72
2023/02/11 10:06:45;;;;;;;38.20;20.73;;;7.80;99.90;;;6.33;100.00;102261.28;5009140;28;20040;-70
2023/02/11 10:09:35;;;;;;;36.80;20.25;;;7.80;99.90;;;6.43;100.00;102251.28;4998339;28;20457;-71
2023/02/11 10:12:25;;;;;;;37.58;21.23;;;7.90;99.90;;;6.48;100.00;102259.81;4996320;28;20449;-71
2023/02/11 10:15:48;;;;;;;38.35;20.90;;;8.00;99.90;;;6.34;100.00;102263.00;5003478;28;20079;-73
2023/02/11 10:18:45;;;;;;;37.10;19.27;;;7.90;99.90;;;6.40;100.00;102261.56;5002223;28;20033;-73
2023/02/11 10:21:31;;;;;;;36.83;19.73;;;7.90;99.90;;;6.47;100.00;102258.09;4988547;28;20066;-73
2023/02/11 10:24:04;;;;;;;35.63;18.90;;;8.00;99.90;;;6.53;100.00;102253.94;5019612;28;20092;-72
2023/02/11 10:26:34;;;;;;;34.85;19.05;;;8.00;99.90;;;6.61;100.00;102258.59;5008391;28;20100;-73
2023/02/11 10:29:19;;;;;;;35.67;18.55;;;8.10;99.90;;;6.63;100.00;102262.03;5000533;28;20046;-72